Wetterdaten: Woche 15.04.13 - 21.04.13 (KW16)
Datum Zeit Temperatur Luftfeuchte Luftdruck Niederschlag Windrichtung Sonnenschein Solar Wind
15.04.2013 00:00 10,7 C 78 % 1021,1 hPa 0,0 l/m N 0,00 h 0 W/m 1,2 km/h (1 Bft)
15.04.2013 01:00 9,8 C 81 % 1020,9 hPa 0,0 l/m N 0,00 h 0 W/m 0,7 km/h (0 Bft)
15.04.2013 02:00 8,9 C 83 % 1020,6 hPa 0,0 l/m N 0,00 h 0 W/m 0,1 km/h (0 Bft)
15.04.2013 03:00 8,0 C 85 % 1020,4 hPa 0,0 l/m N 0,00 h 0 W/m 0,0 km/h (0 Bft)
15.04.2013 04:00 7,4 C 87 % 1020,3 hPa 0,0 l/m N 0,00 h 0 W/m 0,0 km/h (0 Bft)
15.04.2013 05:00 6,9 C 88 % 1020,2 hPa 0,0 l/m N 0,00 h 0 W/m 0,0 km/h (0 Bft)
15.04.2013 06:00 6,3 C 89 % 1020,5 hPa 0,0 l/m N 0,00 h 9 W/m 0,0 km/h (0 Bft)
15.04.2013 07:00 6,5 C 92 % 1020,9 hPa 0,0 l/m N 0,08 h 64 W/m 0,0 km/h (0 Bft)
15.04.2013 08:00 8,6 C 91 % 1021,0 hPa 0,0 l/m N 1,00 h 239 W/m 0,0 km/h (0 Bft)
15.04.2013 09:00 13,0 C 75 % 1020,8 hPa 0,0 l/m N 1,00 h 417 W/m 0,0 km/h (0 Bft)
15.04.2013 10:00 15,9 C 65 % 1020,4 hPa 0,0 l/m N 1,00 h 580 W/m 0,0 km/h (0 Bft)
15.04.2013 11:00 17,9 C 62 % 1020,0 hPa 0,0 l/m N 1,00 h 705 W/m 0,0 km/h (0 Bft)
15.04.2013 12:00 20,4 C 54 % 1019,4 hPa 0,0 l/m N 1,00 h 788 W/m 0,0 km/h (0 Bft)
15.04.2013 13:00 22,1 C 47 % 1018,7 hPa 0,0 l/m S-SW 1,00 h 821 W/m 1,9 km/h (1 Bft)
15.04.2013 14:00 23,4 C 43 % 1018,1 hPa 0,0 l/m S 1,00 h 793 W/m 11,4 km/h (2 Bft)
15.04.2013 15:00 23,4 C 38 % 1017,5 hPa 0,0 l/m SW 1,00 h 539 W/m 11,8 km/h (2 Bft)
15.04.2013 16:00 23,8 C 36 % 1016,9 hPa 0,0 l/m W-SW 1,00 h 586 W/m 12,8 km/h (3 Bft)
15.04.2013 17:00 23,7 C 33 % 1016,8 hPa 0,0 l/m W 1,00 h 456 W/m 12,4 km/h (3 Bft)
15.04.2013 18:00 22,9 C 33 % 1016,7 hPa 0,0 l/m W-SW 1,00 h 264 W/m 11,4 km/h (2 Bft)
15.04.2013 19:00 21,4 C 38 % 1016,7 hPa 0,0 l/m W-SW 0,17 h 39 W/m 10,3 km/h (2 Bft)
15.04.2013 20:00 19,8 C 40 % 1016,9 hPa 0,0 l/m W-SW 0,00 h 5 W/m 8,7 km/h (2 Bft)
15.04.2013 21:00 18,6 C 43 % 1017,2 hPa 0,0 l/m W 0,00 h 0 W/m 9,1 km/h (2 Bft)
15.04.2013 22:00 17,3 C 50 % 1017,3 hPa 0,0 l/m N 0,00 h 0 W/m 1,9 km/h (1 Bft)
15.04.2013 23:00 14,6 C 60 % 1017,4 hPa 0,0 l/m N 0,00 h 0 W/m 0,4 km/h (0 Bft)
16.04.2013 00:00 12,9 C 69 % 1017,2 hPa 0,0 l/m N 0,00 h 0 W/m 0,4 km/h (0 Bft)
16.04.2013 01:00 12,1 C 74 % 1017,0 hPa 0,0 l/m N 0,00 h 0 W/m 0,4 km/h (0 Bft)
16.04.2013 02:00 11,5 C 78 % 1016,7 hPa 0,0 l/m N 0,00 h 0 W/m 0,3 km/h (0 Bft)
16.04.2013 03:00 11,1 C 80 % 1016,7 hPa 0,0 l/m N 0,00 h 0 W/m 0,0 km/h (0 Bft)
16.04.2013 04:00 11,1 C 81 % 1017,0 hPa 0,2 l/m W 0,00 h 0 W/m 4,0 km/h (1 Bft)
16.04.2013 05:00 13,2 C 74 % 1017,2 hPa 0,0 l/m W-NW 0,00 h 0 W/m 11,4 km/h (2 Bft)
16.04.2013 06:00 13,3 C 73 % 1017,7 hPa 0,0 l/m SW 0,00 h 9 W/m 8,8 km/h (2 Bft)
16.04.2013 07:00 11,9 C 80 % 1017,7 hPa 0,0 l/m SW 0,00 h 24 W/m 5,1 km/h (1 Bft)
16.04.2013 08:00 12,1 C 83 % 1018,3 hPa 0,0 l/m S-SO 0,00 h 85 W/m 7,9 km/h (2 Bft)
16.04.2013 09:00 14,4 C 74 % 1018,4 hPa 0,0 l/m SW 0,42 h 297 W/m 15,0 km/h (3 Bft)
16.04.2013 10:00 16,5 C 68 % 1018,5 hPa 0,0 l/m W-SW 0,50 h 410 W/m 18,5 km/h (3 Bft)
16.04.2013 11:00 17,7 C 64 % 1018,7 hPa 0,0 l/m W-SW 0,17 h 270 W/m 15,7 km/h (3 Bft)
16.04.2013 12:00 17,6 C 68 % 1018,4 hPa 0,0 l/m S-SW 0,25 h 397 W/m 14,8 km/h (3 Bft)
16.04.2013 13:00 20,0 C 58 % 1018,0 hPa 0,0 l/m W-SW 1,00 h 840 W/m 20,1 km/h (4 Bft)
16.04.2013 14:00 21,2 C 54 % 1017,5 hPa 0,0 l/m W-SW 1,00 h 769 W/m 21,0 km/h (4 Bft)
16.04.2013 15:00 20,8 C 53 % 1017,4 hPa 0,0 l/m N 0,33 h 294 W/m 18,8 km/h (3 Bft)
16.04.2013 16:00 16,1 C 82 % 1017,7 hPa 3,0 l/m SW 0,00 h 139 W/m 8,8 km/h (2 Bft)
16.04.2013 17:00 17,8 C 76 % 1017,6 hPa 0,0 l/m W-SW 0,00 h 111 W/m 7,1 km/h (2 Bft)
16.04.2013 18:00 18,3 C 72 % 1017,8 hPa 0,0 l/m W-SW 0,17 h 108 W/m 3,7 km/h (1 Bft)
16.04.2013 19:00 17,5 C 79 % 1018,1 hPa 0,0 l/m W-NW 0,00 h 27 W/m 2,8 km/h (1 Bft)
16.04.2013 20:00 16,9 C 76 % 1019,0 hPa 0,0 l/m N 0,00 h 5 W/m 3,6 km/h (1 Bft)
16.04.2013 21:00 15,8 C 75 % 1019,5 hPa 0,0 l/m N 0,00 h 0 W/m 2,7 km/h (1 Bft)
16.04.2013 22:00 14,6 C 79 % 1019,9 hPa 0,0 l/m N 0,00 h 0 W/m 0,5 km/h (0 Bft)
16.04.2013 23:00 13,5 C 83 % 1020,5 hPa 0,0 l/m N 0,00 h 0 W/m 0,0 km/h (0 Bft)
17.04.2013 00:00 13,0 C 86 % 1020,9 hPa 0,0 l/m N 0,00 h 0 W/m 0,3 km/h (0 Bft)
17.04.2013 01:00 12,7 C 89 % 1021,2 hPa 0,0 l/m N 0,00 h 0 W/m 0,9 km/h (0 Bft)
17.04.2013 02:00 12,3 C 88 % 1021,3 hPa 0,0 l/m N 0,00 h 0 W/m 0,5 km/h (0 Bft)
17.04.2013 03:00 11,4 C 88 % 1021,4 hPa 0,0 l/m N 0,00 h 0 W/m 0,0 km/h (0 Bft)
17.04.2013 04:00 10,7 C 90 % 1021,5 hPa 0,2 l/m N 0,00 h 0 W/m 0,0 km/h (0 Bft)
17.04.2013 05:00 10,2 C 90 % 1021,6 hPa 0,0 l/m N 0,00 h 0 W/m 0,0 km/h (0 Bft)
17.04.2013 06:00 9,7 C 91 % 1021,9 hPa 0,0 l/m N 0,00 h 11 W/m 0,0 km/h (0 Bft)
17.04.2013 07:00 9,7 C 94 % 1022,2 hPa 0,0 l/m N 0,08 h 63 W/m 0,7 km/h (0 Bft)
17.04.2013 08:00 11,9 C 91 % 1022,6 hPa 0,0 l/m N 0,33 h 163 W/m 1,7 km/h (1 Bft)
17.04.2013 09:00 14,7 C 80 % 1022,4 hPa 0,0 l/m N 1,00 h 330 W/m 1,7 km/h (1 Bft)
17.04.2013 10:00 16,7 C 70 % 1022,3 hPa 0,0 l/m W-NW 1,00 h 466 W/m 4,9 km/h (1 Bft)
17.04.2013 11:00 18,3 C 63 % 1022,2 hPa 0,0 l/m O 1,00 h 633 W/m 7,8 km/h (2 Bft)
17.04.2013 12:00 20,0 C 55 % 1021,5 hPa 0,0 l/m SO 1,00 h 668 W/m 7,6 km/h (2 Bft)
17.04.2013 13:00 21,4 C 48 % 1020,6 hPa 0,0 l/m O 1,00 h 739 W/m 10,1 km/h (2 Bft)
17.04.2013 14:00 22,3 C 45 % 1019,9 hPa 0,0 l/m SW 1,00 h 652 W/m 9,9 km/h (2 Bft)
17.04.2013 15:00 22,5 C 40 % 1019,3 hPa 0,0 l/m SW 1,00 h 600 W/m 7,4 km/h (2 Bft)
17.04.2013 16:00 23,0 C 35 % 1018,7 hPa 0,0 l/m S-SW 1,00 h 531 W/m 6,3 km/h (2 Bft)
17.04.2013 17:00 23,1 C 39 % 1018,3 hPa 0,0 l/m O 1,00 h 404 W/m 8,0 km/h (2 Bft)
17.04.2013 18:00 22,7 C 43 % 1017,6 hPa 0,0 l/m O-SO 0,83 h 223 W/m 7,2 km/h (2 Bft)
17.04.2013 19:00 21,3 C 48 % 1017,2 hPa 0,0 l/m O-SO 0,08 h 48 W/m 2,9 km/h (1 Bft)
17.04.2013 20:00 19,8 C 55 % 1017,3 hPa 0,0 l/m N 0,00 h 9 W/m 0,9 km/h (0 Bft)
17.04.2013 21:00 17,1 C 62 % 1017,5 hPa 0,0 l/m N 0,00 h 0 W/m 0,5 km/h (0 Bft)
17.04.2013 22:00 15,2 C 68 % 1017,2 hPa 0,0 l/m N 0,00 h 0 W/m 0,7 km/h (0 Bft)
17.04.2013 23:00 13,9 C 72 % 1017,1 hPa 0,0 l/m N 0,00 h 0 W/m 0,3 km/h (0 Bft)
18.04.2013 00:00 12,9 C 75 % 1017,1 hPa 0,0 l/m N 0,00 h 0 W/m 0,0 km/h (0 Bft)
18.04.2013 01:00 11,8 C 80 % 1017,1 hPa 0,0 l/m N 0,00 h 0 W/m 0,0 km/h (0 Bft)
18.04.2013 02:00 11,0 C 83 % 1016,7 hPa 0,0 l/m N 0,00 h 0 W/m 0,0 km/h (0 Bft)
18.04.2013 03:00 10,1 C 85 % 1016,6 hPa 0,0 l/m N 0,00 h 0 W/m 0,0 km/h (0 Bft)
18.04.2013 04:00 9,4 C 87 % 1016,8 hPa 0,0 l/m N 0,00 h 0 W/m 0,0 km/h (0 Bft)
18.04.2013 05:00 9,0 C 89 % 1016,5 hPa 0,0 l/m N 0,00 h 0 W/m 0,1 km/h (0 Bft)
18.04.2013 06:00 8,8 C 91 % 1016,4 hPa 0,0 l/m S 0,00 h 14 W/m 3,9 km/h (1 Bft)
18.04.2013 07:00 12,3 C 80 % 1016,5 hPa 0,0 l/m SW 0,08 h 64 W/m 13,6 km/h (3 Bft)
18.04.2013 08:00 14,4 C 74 % 1016,5 hPa 0,0 l/m SW 0,25 h 128 W/m 14,6 km/h (3 Bft)
18.04.2013 09:00 17,1 C 64 % 1016,3 hPa 0,0 l/m SW 0,67 h 374 W/m 22,3 km/h (4 Bft)
18.04.2013 10:00 19,4 C 57 % 1016,4 hPa 0,0 l/m W-SW 0,83 h 479 W/m 22,1 km/h (4 Bft)
18.04.2013 11:00 20,9 C 54 % 1016,5 hPa 0,0 l/m W-SW 1,00 h 697 W/m 25,1 km/h (4 Bft)
18.04.2013 12:00 21,3 C 55 % 1016,2 hPa 0,0 l/m W-SW 0,42 h 463 W/m 22,2 km/h (4 Bft)
18.04.2013 13:00 21,2 C 56 % 1015,9 hPa 0,0 l/m W-SW 0,00 h 255 W/m 20,9 km/h (4 Bft)
18.04.2013 14:00 21,8 C 53 % 1015,7 hPa 0,0 l/m W 0,42 h 551 W/m 23,2 km/h (4 Bft)
18.04.2013 15:00 23,1 C 50 % 1015,2 hPa 0,0 l/m W-SW 1,00 h 731 W/m 27,4 km/h (4 Bft)
18.04.2013 16:00 23,3 C 50 % 1014,7 hPa 0,0 l/m W-SW 0,75 h 480 W/m 18,6 km/h (3 Bft)
18.04.2013 17:00 22,3 C 52 % 1014,3 hPa 0,0 l/m W 0,17 h 140 W/m 16,0 km/h (3 Bft)
18.04.2013 18:00 19,1 C 69 % 1014,6 hPa 0,6 l/m W-NW 0,17 h 86 W/m 15,6 km/h (3 Bft)
18.04.2013 19:00 18,4 C 60 % 1014,8 hPa 0,0 l/m NW 0,00 h 44 W/m 17,7 km/h (3 Bft)
18.04.2013 20:00 17,1 C 63 % 1015,7 hPa 0,0 l/m NW 0,00 h 5 W/m 9,7 km/h (2 Bft)
18.04.2013 21:00 16,3 C 68 % 1016,9 hPa 0,0 l/m N-NW 0,00 h 0 W/m 8,7 km/h (2 Bft)
18.04.2013 22:00 15,6 C 74 % 1017,4 hPa 0,0 l/m N-NW 0,00 h 0 W/m 6,7 km/h (2 Bft)
18.04.2013 23:00 14,6 C 80 % 1017,9 hPa 0,6 l/m N 0,00 h 0 W/m 7,4 km/h (2 Bft)
19.04.2013 00:00 13,2 C 86 % 1018,3 hPa 0,8 l/m N-NW 0,00 h 0 W/m 4,9 km/h (1 Bft)
19.04.2013 01:00 12,3 C 91 % 1018,5 hPa 1,2 l/m N-NW 0,00 h 0 W/m 9,0 km/h (2 Bft)
19.04.2013 02:00 10,2 C 88 % 1019,0 hPa 1,8 l/m N 0,00 h 0 W/m 11,8 km/h (2 Bft)
19.04.2013 03:00 9,1 C 90 % 1019,1 hPa 0,8 l/m N 0,00 h 0 W/m 3,5 km/h (1 Bft)
19.04.2013 04:00 8,7 C 92 % 1019,0 hPa 0,6 l/m N 0,00 h 0 W/m 1,1 km/h (0 Bft)
19.04.2013 05:00 8,6 C 93 % 1018,8 hPa 0,6 l/m N 0,00 h 0 W/m 1,1 km/h (0 Bft)
19.04.2013 06:00 8,3 C 94 % 1019,4 hPa 1,8 l/m N-NW 0,00 h 5 W/m 3,1 km/h (1 Bft)
19.04.2013 07:00 8,1 C 95 % 1020,0 hPa 1,0 l/m SW 0,00 h 12 W/m 6,8 km/h (2 Bft)
19.04.2013 08:00 7,9 C 95 % 1020,3 hPa 1,0 l/m SW 0,00 h 24 W/m 6,3 km/h (2 Bft)
19.04.2013 09:00 7,8 C 95 % 1020,5 hPa 0,8 l/m SW 0,00 h 39 W/m 5,5 km/h (1 Bft)
19.04.2013 10:00 7,7 C 95 % 1020,4 hPa 0,6 l/m S-SW 0,00 h 74 W/m 10,2 km/h (2 Bft)
19.04.2013 11:00 8,0 C 93 % 1020,5 hPa 0,2 l/m SW 0,00 h 86 W/m 7,3 km/h (2 Bft)
19.04.2013 12:00 7,8 C 93 % 1020,9 hPa 1,0 l/m SW 0,00 h 61 W/m 6,8 km/h (2 Bft)
19.04.2013 13:00 7,5 C 92 % 1020,8 hPa 1,2 l/m SW 0,00 h 61 W/m 4,3 km/h (1 Bft)
19.04.2013 14:00 7,1 C 91 % 1021,0 hPa 2,0 l/m SW 0,00 h 58 W/m 3,6 km/h (1 Bft)
19.04.2013 15:00 6,7 C 92 % 1021,2 hPa 3,2 l/m SW 0,00 h 32 W/m 1,9 km/h (1 Bft)
19.04.2013 16:00 6,1 C 92 % 1021,8 hPa 2,0 l/m SW 0,00 h 25 W/m 1,2 km/h (1 Bft)
19.04.2013 17:00 5,8 C 92 % 1022,1 hPa 2,2 l/m N 0,00 h 24 W/m 1,9 km/h (1 Bft)
19.04.2013 18:00 5,4 C 93 % 1022,3 hPa 2,4 l/m N 0,00 h 13 W/m 2,3 km/h (1 Bft)
19.04.2013 19:00 5,1 C 94 % 1022,5 hPa 1,8 l/m N 0,00 h 6 W/m 0,0 km/h (0 Bft)
19.04.2013 20:00 4,9 C 94 % 1022,6 hPa 1,2 l/m N 0,00 h 0 W/m 1,5 km/h (1 Bft)
19.04.2013 21:00 4,8 C 95 % 1022,9 hPa 1,8 l/m W-SW 0,00 h 0 W/m 4,9 km/h (1 Bft)
19.04.2013 22:00 4,7 C 95 % 1023,2 hPa 3,2 l/m N 0,00 h 0 W/m 11,1 km/h (2 Bft)
19.04.2013 23:00 3,8 C 94 % 1023,3 hPa 3,8 l/m N-NO 0,00 h 0 W/m 16,0 km/h (3 Bft)
20.04.2013 00:00 2,9 C 95 % 1023,5 hPa 3,2 l/m NO 0,00 h 0 W/m 13,3 km/h (3 Bft)
20.04.2013 01:00 2,1 C 95 % 1023,5 hPa 1,6 l/m NO 0,00 h 0 W/m 7,6 km/h (2 Bft)
20.04.2013 02:00 1,4 C 95 % 1023,1 hPa 0,4 l/m N-NO 0,00 h 0 W/m 5,6 km/h (1 Bft)
20.04.2013 03:00 1,1 C 95 % 1022,9 hPa 0,0 l/m N-NO 0,00 h 0 W/m 4,1 km/h (1 Bft)
20.04.2013 04:00 0,8 C 96 % 1022,3 hPa 0,0 l/m N-NO 0,00 h 0 W/m 4,5 km/h (1 Bft)
20.04.2013 05:00 0,8 C 96 % 1021,7 hPa 0,0 l/m N-NO 0,00 h 0 W/m 6,7 km/h (2 Bft)
20.04.2013 06:00 1,2 C 97 % 1021,2 hPa 2,0 l/m N-NO 0,00 h 6 W/m 10,1 km/h (2 Bft)
20.04.2013 07:00 2,5 C 98 % 1020,9 hPa 3,8 l/m O-NO 0,00 h 10 W/m 19,7 km/h (3 Bft)
20.04.2013 08:00 3,4 C 97 % 1020,5 hPa 0,8 l/m N-NO 0,00 h 24 W/m 23,9 km/h (4 Bft)
20.04.2013 09:00 4,0 C 97 % 1020,4 hPa 0,2 l/m NO 0,00 h 25 W/m 24,8 km/h (4 Bft)
20.04.2013 10:00 4,4 C 97 % 1020,4 hPa 0,0 l/m O-NO 0,00 h 36 W/m 24,9 km/h (4 Bft)
20.04.2013 11:00 4,7 C 97 % 1020,2 hPa 0,0 l/m O-NO 0,00 h 42 W/m 24,9 km/h (4 Bft)
20.04.2013 12:00 5,1 C 97 % 1020,0 hPa 0,2 l/m NO 0,00 h 59 W/m 25,2 km/h (4 Bft)
20.04.2013 13:00 5,4 C 96 % 1019,7 hPa 0,2 l/m NO 0,00 h 75 W/m 24,3 km/h (4 Bft)
20.04.2013 14:00 5,8 C 96 % 1019,5 hPa 0,2 l/m O-NO 0,00 h 68 W/m 23,6 km/h (4 Bft)
20.04.2013 15:00 5,9 C 96 % 1019,2 hPa 0,2 l/m NO 0,00 h 44 W/m 22,5 km/h (4 Bft)
20.04.2013 16:00 6,1 C 96 % 1019,1 hPa 0,2 l/m O-NO 0,00 h 43 W/m 22,0 km/h (4 Bft)
20.04.2013 17:00 6,2 C 96 % 1019,0 hPa 0,0 l/m NO 0,00 h 36 W/m 20,1 km/h (4 Bft)
20.04.2013 18:00 6,3 C 96 % 1018,9 hPa 0,2 l/m O-NO 0,00 h 23 W/m 20,9 km/h (4 Bft)
20.04.2013 19:00 6,2 C 96 % 1019,0 hPa 0,0 l/m O-NO 0,00 h 7 W/m 19,2 km/h (3 Bft)
20.04.2013 20:00 6,2 C 97 % 1019,3 hPa 0,0 l/m O-NO 0,00 h 0 W/m 17,7 km/h (3 Bft)
20.04.2013 21:00 6,3 C 97 % 1019,2 hPa 0,2 l/m O-NO 0,00 h 0 W/m 19,2 km/h (3 Bft)
20.04.2013 22:00 6,3 C 97 % 1019,1 hPa 0,0 l/m O-NO 0,00 h 0 W/m 15,4 km/h (3 Bft)
20.04.2013 23:00 6,4 C 97 % 1018,9 hPa 0,2 l/m O-NO 0,00 h 0 W/m 13,7 km/h (3 Bft)
21.04.2013 00:00 6,4 C 97 % 1018,4 hPa 0,0 l/m NO 0,00 h 0 W/m 14,8 km/h (3 Bft)
21.04.2013 01:00 6,4 C 97 % 1018,0 hPa 0,0 l/m O-NO 0,00 h 0 W/m 15,0 km/h (3 Bft)
21.04.2013 02:00 6,4 C 98 % 1017,4 hPa 0,0 l/m O-NO 0,00 h 0 W/m 13,4 km/h (3 Bft)
21.04.2013 03:00 6,4 C 98 % 1017,0 hPa 0,2 l/m NO 0,00 h 0 W/m 13,6 km/h (3 Bft)
21.04.2013 04:00 6,5 C 98 % 1016,8 hPa 0,0 l/m NO 0,00 h 0 W/m 11,6 km/h (2 Bft)
21.04.2013 05:00 6,4 C 98 % 1016,6 hPa 0,0 l/m O-NO 0,00 h 0 W/m 12,0 km/h (2 Bft)
21.04.2013 06:00 6,4 C 98 % 1016,6 hPa 0,0 l/m NO 0,00 h 5 W/m 8,2 km/h (2 Bft)
21.04.2013 07:00 6,4 C 98 % 1016,7 hPa 0,0 l/m NO 0,00 h 10 W/m 5,7 km/h (1 Bft)
21.04.2013 08:00 6,6 C 98 % 1016,7 hPa 0,2 l/m N 0,00 h 28 W/m 3,5 km/h (1 Bft)
21.04.2013 09:00 7,0 C 98 % 1016,8 hPa 0,0 l/m N 0,00 h 48 W/m 2,0 km/h (1 Bft)
21.04.2013 10:00 7,4 C 98 % 1016,6 hPa 0,0 l/m NO 0,00 h 75 W/m 2,5 km/h (1 Bft)
21.04.2013 11:00 8,1 C 94 % 1016,6 hPa 0,0 l/m NO 0,00 h 118 W/m 4,0 km/h (1 Bft)
21.04.2013 12:00 8,8 C 92 % 1016,4 hPa 0,0 l/m NO 0,00 h 153 W/m 7,6 km/h (2 Bft)
21.04.2013 13:00 9,0 C 88 % 1016,2 hPa 0,0 l/m N 0,00 h 131 W/m 6,4 km/h (2 Bft)
21.04.2013 14:00 9,0 C 88 % 1016,0 hPa 0,0 l/m N 0,00 h 87 W/m 4,8 km/h (1 Bft)
21.04.2013 15:00 9,2 C 88 % 1015,6 hPa 0,0 l/m N 0,00 h 104 W/m 2,8 km/h (1 Bft)
21.04.2013 16:00 9,4 C 86 % 1015,3 hPa 0,0 l/m N 0,00 h 62 W/m 1,7 km/h (1 Bft)
21.04.2013 17:00 9,3 C 90 % 1015,1 hPa 0,0 l/m N-NW 0,00 h 42 W/m 4,4 km/h (1 Bft)
21.04.2013 18:00 8,9 C 92 % 1015,0 hPa 0,0 l/m N-NW 0,00 h 16 W/m 4,9 km/h (1 Bft)
21.04.2013 19:00 8,5 C 94 % 1015,0 hPa 0,0 l/m N 0,00 h 9 W/m 2,3 km/h (1 Bft)
21.04.2013 20:00 8,3 C 95 % 1015,3 hPa 0,0 l/m N 0,00 h 0 W/m 1,2 km/h (1 Bft)
21.04.2013 21:00 8,1 C 95 % 1015,7 hPa 0,0 l/m N 0,00 h 0 W/m 2,4 km/h (1 Bft)
21.04.2013 22:00 7,9 C 96 % 1015,9 hPa 0,0 l/m N 0,00 h 0 W/m 0,4 km/h (0 Bft)
21.04.2013 23:00 7,8 C 96 % 1015,8 hPa 0,0 l/m N 0,00 h 0 W/m 0,5 km/h (0 Bft)
Min-Datum _ 20.04.13 15.04.13 18.04.13 - - - - 15.04.13
_ Min-Zeit 05:05 18:05 17:20 - - - - 00:00
Minimum _ 0,7 C 30 % 1014,2 hPa - - - - 0,0 km/h (0 Bft)
Max-Datum _ 15.04.13 20.04.13 20.04.13 19.04.13 - 15.04.13 18.04.13 16.04.13
_ Max-Zeit 17:00 12:15 00:45 23:00 - 07:55 14:25 16:00
Maximum _ 24,2 C 100 % 1023,8 hPa 3,8 l/m - 0,08 h 1002 W/m 41,8 km/h
SW (6 Bft)
Durchschnitt _ 11,8 C 79 % 1018,7 hPa #55,6 l/m NO #31:10 h 216 W/m 8,0 km/h (2 Bft)